NCAR-RAP Real-Time Weather Data

Output produced by METARs form (08 May 2021  02:21 UTC)
found at http://weather.rap.ucar.edu/surface/
 
KDAB 080153Z 00000KT 10SM CLR 19/10 A3003 RMK AO2 SLP169 T01940100
KDAB 080053Z 00000KT 10SM CLR 22/07 A3001 RMK AO2 SLP160 T02170067
KDAB 072353Z 32005KT 10SM CLR 25/05 A2998 RMK AO2 SLP153 T02500050 10283 20250 53002
KDAB 072153Z 30006KT 10SM CLR 27/03 A2997 RMK AO2 SLP148 T02720033 $
KDAB 072053Z 30007KT 10SM CLR 28/04 A2996 RMK AO2 SLP145 T02780039 56017 $
KDAB 071953Z 29010KT 10SM CLR 28/04 A2998 RMK AO2 SLP151 T02780039
KDAB 071853Z 33010KT 320V020 10SM CLR 27/07 A3000 RMK AO2 SLP156 T02720072 $
KDAB 071753Z 29012G19KT 10SM CLR 26/08 A3001 RMK AO2 SLP162 T02610083 10267 20200 58010
KDAB 071653Z 33012G18KT 10SM CLR 26/08 A3003 RMK AO2 SLP168 T02610083
KDAB 071553Z 29009G16KT 260V330 10SM CLR 25/08 A3004 RMK AO2 SLP173 T02500083
KDAB 071453Z 33009KT 10SM CLR 24/08 A3004 RMK AO2 SLP173 T02390083 51009
KDAB 071353Z 31010KT 10SM CLR 23/10 A3004 RMK AO2 SLP172 T02280100
KDAB 071253Z 33009KT 10SM CLR 22/11 A3003 RMK AO2 SLP169 T02170111
KDAB 071153Z 31008KT 10SM CLR 20/13 A3002 RMK AO2 SLP164 70014 T02000133 10217 20189 53017
KDAB 071053Z 30004KT 10SM FEW050 19/15 A3000 RMK AO2 SLP157 T01890150